Latheron, United Kingdom
Current Conditions -  °F | °C
As of 10:20 PM on Friday 24 Oct 2014 (Local Time) from EGPC Reporting Station
Clear Clear  
Wind Chill: 41°   Ceiling: Unl
Heat Index: 46°   Visibility: 6mi
Dew Point: 41°   Wind: 10mph
Humidity: 81%   Direction: 210°SSW
Pressure: 29.56"   Gusts: NA
Location:  58.29°N, 3.35°W
Report Text: EGPC 242120Z AUTO 21009KT 180V260 9999 NCD 08/05 Q1001
Loading
Personal Weather Stations






























Interactive Weather Map
Tropical Storm Tracking
New forecast layout! Learn more

10-Day Weather Forecast

Advertisements
Track Severe Weather on mobile